メインページ
METAR-TAF:

METAR-TAF

空港 :

ヘネラル・ロベルト・フィエロ・ヴィラロボス国際空港

チワワ州, メキシコ

緯度: 28-42N, 経度: 105-58W, 海抜: 1360m

現時点の気象観測

当レポートは33分前の01:46(UTC)に作成
北東の風 6kt
気温 21°C
湿度 16%
気圧 1020 hPa
視程: 16.1km
高度8000ftの雲は散在している

METAR: MMCU 260146Z 05006KT 10SM SCT080 21/M06 A3013 RMK 8/070

時間: 19:19 (02:19 UTC)

予報

当レポートは9時間7分前の17:12(UTC)に作成
予報は25日の 18時(UTC)から 26日の 18時(UTC)まで有効
の風 12kt
視程: 10km
高度22000ftの千切れ雲あり
26日の 0400時(UTC)から
東/南東の風 8kt
視程: 10km
高度4000ftの雲は散在している
高度22000ftの千切れ雲あり
26日の 09時(UTC)から 26日の 10時(UTC)まで徐々に
高度3000ftの千切れ雲あり
高度22000ftの千切れ雲あり
26日の 1600時(UTC)から
南東の風 12kt
視程: 10km
高度3000ftの千切れ雲あり
高度22000ftの千切れ雲あり

TAF: MMCU 251712Z 2518/2618 08012KT P6SM BKN220 FM260400 12008KT P6SM SCT040 BKN220 BECMG 2609/2610 BKN030 BKN220 FM261600 13012KT P6SM BKN030 BKN220

4,000以上の空港の気象観測と天気予報(METAR報とTAF報)

利用可能な観測所は地図上に黄色い丸と赤い丸で示す。

丸の上にカーソルを重ねると観測所名を参照できる。

次にクリックすると気象観測と天気予報を参照できる。

マップの切り替え:黒色「×」印の緑ボタンをクリックして拡大、「-」印の緑ボタンをクリックして縮小、緑色の三角印をクリックして隣りの地図に切り替え


METAR-TAF: